sensor_id;sensor_type;location;lat;lon;timestamp;P1;durP1;ratioP1;P2;durP2;ratioP2
18138;SDS011;9195;53.176;9.486;2023-01-01T00:01:36;12.00;;;11.50;;
18138;SDS011;9195;53.176;9.486;2023-01-01T00:04:04;11.70;;;11.20;;
18138;SDS011;9195;53.176;9.486;2023-01-01T00:06:33;12.03;;;11.53;;
18138;SDS011;9195;53.176;9.486;2023-01-01T00:08:58;11.90;;;11.40;;
18138;SDS011;9195;53.176;9.486;2023-01-01T00:11:42;12.80;;;12.20;;
18138;SDS011;9195;53.176;9.486;2023-01-01T00:14:08;12.33;;;11.83;;
18138;SDS011;9195;53.176;9.486;2023-01-01T00:16:34;12.53;;;11.97;;
18138;SDS011;9195;53.176;9.486;2023-01-01T00:18:59;12.53;;;11.97;;
18138;SDS011;9195;53.176;9.486;2023-01-01T00:21:25;12.73;;;12.13;;
18138;SDS011;9195;53.176;9.486;2023-01-01T00:23:51;12.53;;;12.00;;
18138;SDS011;9195;53.176;9.486;2023-01-01T00:26:16;12.50;;;12.00;;
18138;SDS011;9195;53.176;9.486;2023-01-01T00:28:42;12.90;;;12.30;;
18138;SDS011;9195;53.176;9.486;2023-01-01T00:31:10;12.10;;;11.60;;
18138;SDS011;9195;53.176;9.486;2023-01-01T00:33:37;12.30;;;11.80;;
18138;SDS011;9195;53.176;9.486;2023-01-01T00:36:10;12.20;;;11.70;;
18138;SDS011;9195;53.176;9.486;2023-01-01T00:38:40;11.90;;;11.40;;
18138;SDS011;9195;53.176;9.486;2023-01-01T00:41:07;12.10;;;11.60;;
18138;SDS011;9195;53.176;9.486;2023-01-01T00:43:32;12.40;;;11.90;;
18138;SDS011;9195;53.176;9.486;2023-01-01T00:45:58;12.10;;;11.60;;
18138;SDS011;9195;53.176;9.486;2023-01-01T00:48:24;12.40;;;11.90;;
18138;SDS011;9195;53.176;9.486;2023-01-01T00:50:50;12.27;;;11.77;;
18138;SDS011;9195;53.176;9.486;2023-01-01T00:53:17;12.30;;;11.80;;
18138;SDS011;9195;53.176;9.486;2023-01-01T00:55:43;12.33;;;11.83;;
18138;SDS011;9195;53.176;9.486;2023-01-01T00:58:09;12.40;;;11.90;;
18138;SDS011;9195;53.176;9.486;2023-01-01T01:00:35;12.10;;;11.60;;
18138;SDS011;9195;53.176;9.486;2023-01-01T01:03:01;12.30;;;11.80;;
18138;SDS011;9195;53.176;9.486;2023-01-01T01:05:27;12.33;;;11.83;;
18138;SDS011;9195;53.176;9.486;2023-01-01T01:07:52;12.20;;;11.70;;
18138;SDS011;9195;53.176;9.486;2023-01-01T01:10:18;12.20;;;11.70;;
18138;SDS011;9195;53.176;9.486;2023-01-01T01:12:46;12.80;;;12.20;;
18138;SDS011;9195;53.176;9.486;2023-01-01T01:15:11;12.40;;;11.90;;
18138;SDS011;9195;53.176;9.486;2023-01-01T01:17:37;12.70;;;12.10;;
18138;SDS011;9195;53.176;9.486;2023-01-01T01:20:03;12.57;;;12.00;;
18138;SDS011;9195;53.176;9.486;2023-01-01T01:22:30;12.40;;;11.90;;
18138;SDS011;9195;53.176;9.486;2023-01-01T01:24:56;12.67;;;12.07;;
18138;SDS011;9195;53.176;9.486;2023-01-01T01:27:21;12.43;;;11.93;;
18138;SDS011;9195;53.176;9.486;2023-01-01T01:29:48;12.90;;;12.30;;
18138;SDS011;9195;53.176;9.486;2023-01-01T01:32:13;12.70;;;12.10;;
18138;SDS011;9195;53.176;9.486;2023-01-01T01:34:39;12.40;;;11.90;;
18138;SDS011;9195;53.176;9.486;2023-01-01T01:37:04;12.00;;;11.50;;
18138;SDS011;9195;53.176;9.486;2023-01-01T01:39:30;12.80;;;12.20;;
18138;SDS011;9195;53.176;9.486;2023-01-01T01:41:56;12.90;;;12.30;;
18138;SDS011;9195;53.176;9.486;2023-01-01T01:47:27;12.73;;;12.13;;
18138;SDS011;9195;53.176;9.486;2023-01-01T01:52:50;12.70;;;12.10;;
18138;SDS011;9195;53.176;9.486;2023-01-01T01:55:47;12.80;;;12.20;;
18138;SDS011;9195;53.176;9.486;2023-01-01T01:58:20;12.80;;;12.20;;
18138;SDS011;9195;53.176;9.486;2023-01-01T02:00:46;12.90;;;12.30;;
18138;SDS011;9195;53.176;9.486;2023-01-01T02:03:19;12.83;;;12.23;;
18138;SDS011;9195;53.176;9.486;2023-01-01T02:05:49;12.90;;;12.30;;
18138;SDS011;9195;53.176;9.486;2023-01-01T02:08:15;12.80;;;12.20;;
18138;SDS011;9195;53.176;9.486;2023-01-01T02:10:41;12.87;;;12.27;;
18138;SDS011;9195;53.176;9.486;2023-01-01T02:13:07;12.50;;;12.00;;
18138;SDS011;9195;53.176;9.486;2023-01-01T02:15:35;12.83;;;12.23;;
18138;SDS011;9195;53.176;9.486;2023-01-01T02:18:10;12.73;;;12.13;;
18138;SDS011;9195;53.176;9.486;2023-01-01T02:26:15;12.40;;;11.90;;
18138;SDS011;9195;53.176;9.486;2023-01-01T02:29:06;12.03;;;11.53;;
18138;SDS011;9195;53.176;9.486;2023-01-01T02:31:40;12.07;;;11.57;;
18138;SDS011;9195;53.176;9.486;2023-01-01T02:34:09;11.63;;;11.13;;
18138;SDS011;9195;53.176;9.486;2023-01-01T02:36:39;11.77;;;11.27;;
18138;SDS011;9195;53.176;9.486;2023-01-01T02:39:10;11.60;;;11.10;;
18138;SDS011;9195;53.176;9.486;2023-01-01T02:41:42;11.80;;;11.30;;
18138;SDS011;9195;53.176;9.486;2023-01-01T02:44:11;11.73;;;11.23;;
18138;SDS011;9195;53.176;9.486;2023-01-01T02:46:37;11.60;;;11.10;;
18138;SDS011;9195;53.176;9.486;2023-01-01T02:49:02;11.80;;;11.30;;
18138;SDS011;9195;53.176;9.486;2023-01-01T02:51:36;12.20;;;11.70;;
18138;SDS011;9195;53.176;9.486;2023-01-01T02:56:43;13.13;;;12.53;;
18138;SDS011;9195;53.176;9.486;2023-01-01T03:02:16;12.40;;;11.90;;
18138;SDS011;9195;53.176;9.486;2023-01-01T03:13:24;12.27;;;11.77;;
18138;SDS011;9195;53.176;9.486;2023-01-01T03:18:38;12.60;;;12.00;;
18138;SDS011;9195;53.176;9.486;2023-01-01T03:21:06;12.30;;;11.80;;
18138;SDS011;9195;53.176;9.486;2023-01-01T03:23:35;12.30;;;11.80;;
18138;SDS011;9195;53.176;9.486;2023-01-01T03:26:08;12.10;;;11.60;;
18138;SDS011;9195;53.176;9.486;2023-01-01T03:28:40;12.10;;;11.60;;
18138;SDS011;9195;53.176;9.486;2023-01-01T03:31:10;12.30;;;11.80;;
18138;SDS011;9195;53.176;9.486;2023-01-01T03:33:43;12.00;;;11.50;;
18138;SDS011;9195;53.176;9.486;2023-01-01T03:36:12;11.87;;;11.37;;
18138;SDS011;9195;53.176;9.486;2023-01-01T03:38:44;11.60;;;11.10;;
18138;SDS011;9195;53.176;9.486;2023-01-01T03:42:08;11.53;;;11.03;;
18138;SDS011;9195;53.176;9.486;2023-01-01T03:46:58;11.40;;;10.90;;
18138;SDS011;9195;53.176;9.486;2023-01-01T03:49:25;11.57;;;11.07;;
18138;SDS011;9195;53.176;9.486;2023-01-01T03:59:59;11.37;;;10.87;;
18138;SDS011;9195;53.176;9.486;2023-01-01T04:02:31;11.70;;;11.20;;
18138;SDS011;9195;53.176;9.486;2023-01-01T04:05:19;11.60;;;11.10;;
18138;SDS011;9195;53.176;9.486;2023-01-01T04:07:45;11.70;;;11.20;;
18138;SDS011;9195;53.176;9.486;2023-01-01T04:10:12;11.93;;;11.43;;
18138;SDS011;9195;53.176;9.486;2023-01-01T04:12:52;12.30;;;11.80;;
18138;SDS011;9195;53.176;9.486;2023-01-01T04:15:20;12.40;;;11.90;;
18138;SDS011;9195;53.176;9.486;2023-01-01T04:17:48;12.27;;;11.77;;
18138;SDS011;9195;53.176;9.486;2023-01-01T04:20:14;12.17;;;11.67;;
18138;SDS011;9195;53.176;9.486;2023-01-01T04:22:40;12.37;;;11.87;;
18138;SDS011;9195;53.176;9.486;2023-01-01T04:25:07;12.47;;;11.97;;
18138;SDS011;9195;53.176;9.486;2023-01-01T04:27:33;12.40;;;11.90;;
18138;SDS011;9195;53.176;9.486;2023-01-01T04:29:59;12.50;;;11.97;;
18138;SDS011;9195;53.176;9.486;2023-01-01T04:32:24;12.73;;;12.13;;
18138;SDS011;9195;53.176;9.486;2023-01-01T04:34:50;12.27;;;11.77;;
18138;SDS011;9195;53.176;9.486;2023-01-01T04:37:16;12.47;;;11.97;;
18138;SDS011;9195;53.176;9.486;2023-01-01T04:39:41;12.80;;;12.20;;
18138;SDS011;9195;53.176;9.486;2023-01-01T04:42:07;12.70;;;12.10;;
18138;SDS011;9195;53.176;9.486;2023-01-01T04:44:33;12.40;;;11.90;;
18138;SDS011;9195;53.176;9.486;2023-01-01T04:46:59;13.00;;;12.40;;
18138;SDS011;9195;53.176;9.486;2023-01-01T04:49:24;12.50;;;12.00;;
18138;SDS011;9195;53.176;9.486;2023-01-01T04:51:50;12.80;;;12.20;;
18138;SDS011;9195;53.176;9.486;2023-01-01T04:54:15;12.70;;;12.10;;
18138;SDS011;9195;53.176;9.486;2023-01-01T04:56:41;12.40;;;11.90;;
18138;SDS011;9195;53.176;9.486;2023-01-01T04:59:06;12.43;;;11.93;;
18138;SDS011;9195;53.176;9.486;2023-01-01T05:01:32;12.80;;;12.20;;
18138;SDS011;9195;53.176;9.486;2023-01-01T05:03:58;12.53;;;12.00;;
18138;SDS011;9195;53.176;9.486;2023-01-01T05:06:24;13.07;;;12.47;;
18138;SDS011;9195;53.176;9.486;2023-01-01T05:08:51;12.40;;;11.90;;
18138;SDS011;9195;53.176;9.486;2023-01-01T05:11:20;12.90;;;12.30;;
18138;SDS011;9195;53.176;9.486;2023-01-01T05:13:49;13.00;;;12.40;;
18138;SDS011;9195;53.176;9.486;2023-01-01T05:16:18;12.90;;;12.30;;
18138;SDS011;9195;53.176;9.486;2023-01-01T05:18:45;12.80;;;12.20;;
18138;SDS011;9195;53.176;9.486;2023-01-01T05:21:12;12.73;;;12.13;;
18138;SDS011;9195;53.176;9.486;2023-01-01T05:23:43;12.70;;;12.10;;
18138;SDS011;9195;53.176;9.486;2023-01-01T05:26:13;12.67;;;12.10;;
18138;SDS011;9195;53.176;9.486;2023-01-01T05:28:43;13.00;;;12.40;;
18138;SDS011;9195;53.176;9.486;2023-01-01T05:31:10;12.80;;;12.20;;
18138;SDS011;9195;53.176;9.486;2023-01-01T05:33:37;12.80;;;12.20;;
18138;SDS011;9195;53.176;9.486;2023-01-01T05:36:03;12.63;;;12.07;;
18138;SDS011;9195;53.176;9.486;2023-01-01T05:38:30;13.20;;;12.60;;
18138;SDS011;9195;53.176;9.486;2023-01-01T05:40:55;13.10;;;12.50;;
18138;SDS011;9195;53.176;9.486;2023-01-01T05:43:22;13.47;;;12.87;;
18138;SDS011;9195;53.176;9.486;2023-01-01T05:45:48;13.13;;;12.53;;
18138;SDS011;9195;53.176;9.486;2023-01-01T05:48:14;13.20;;;12.60;;
18138;SDS011;9195;53.176;9.486;2023-01-01T05:50:39;13.00;;;12.40;;
18138;SDS011;9195;53.176;9.486;2023-01-01T05:53:05;12.97;;;12.37;;
18138;SDS011;9195;53.176;9.486;2023-01-01T05:55:30;13.17;;;12.57;;
18138;SDS011;9195;53.176;9.486;2023-01-01T05:57:56;12.77;;;12.17;;
18138;SDS011;9195;53.176;9.486;2023-01-01T06:00:22;12.43;;;11.93;;
18138;SDS011;9195;53.176;9.486;2023-01-01T06:02:48;12.97;;;12.37;;
18138;SDS011;9195;53.176;9.486;2023-01-01T06:05:18;12.90;;;12.30;;
18138;SDS011;9195;53.176;9.486;2023-01-01T06:07:44;13.20;;;12.60;;
18138;SDS011;9195;53.176;9.486;2023-01-01T06:10:09;13.20;;;12.60;;
18138;SDS011;9195;53.176;9.486;2023-01-01T06:12:35;13.00;;;12.40;;
18138;SDS011;9195;53.176;9.486;2023-01-01T06:15:00;13.10;;;12.50;;
18138;SDS011;9195;53.176;9.486;2023-01-01T06:17:26;13.07;;;12.47;;
18138;SDS011;9195;53.176;9.486;2023-01-01T06:19:52;13.10;;;12.50;;
18138;SDS011;9195;53.176;9.486;2023-01-01T06:22:17;12.93;;;12.33;;
18138;SDS011;9195;53.176;9.486;2023-01-01T06:24:43;13.20;;;12.60;;
18138;SDS011;9195;53.176;9.486;2023-01-01T06:27:08;12.83;;;12.23;;
18138;SDS011;9195;53.176;9.486;2023-01-01T06:29:34;13.07;;;12.47;;
18138;SDS011;9195;53.176;9.486;2023-01-01T06:31:59;12.83;;;12.23;;
18138;SDS011;9195;53.176;9.486;2023-01-01T06:34:25;13.00;;;12.40;;
18138;SDS011;9195;53.176;9.486;2023-01-01T06:36:51;12.97;;;12.37;;
18138;SDS011;9195;53.176;9.486;2023-01-01T06:39:16;13.03;;;12.43;;
18138;SDS011;9195;53.176;9.486;2023-01-01T06:41:42;12.93;;;12.33;;
18138;SDS011;9195;53.176;9.486;2023-01-01T06:44:08;13.30;;;12.70;;
18138;SDS011;9195;53.176;9.486;2023-01-01T06:46:34;13.37;;;12.77;;
18138;SDS011;9195;53.176;9.486;2023-01-01T06:49:01;13.30;;;12.70;;
18138;SDS011;9195;53.176;9.486;2023-01-01T06:51:32;12.83;;;12.23;;
18138;SDS011;9195;53.176;9.486;2023-01-01T06:54:03;12.80;;;12.20;;
18138;SDS011;9195;53.176;9.486;2023-01-01T06:56:29;13.00;;;12.40;;
18138;SDS011;9195;53.176;9.486;2023-01-01T06:58:55;13.00;;;12.40;;
18138;SDS011;9195;53.176;9.486;2023-01-01T07:01:22;13.20;;;12.60;;
18138;SDS011;9195;53.176;9.486;2023-01-01T07:03:50;12.80;;;12.20;;
18138;SDS011;9195;53.176;9.486;2023-01-01T07:06:21;12.90;;;12.30;;
18138;SDS011;9195;53.176;9.486;2023-01-01T07:08:47;12.60;;;12.10;;
18138;SDS011;9195;53.176;9.486;2023-01-01T07:11:13;13.03;;;12.43;;
18138;SDS011;9195;53.176;9.486;2023-01-01T07:13:39;12.70;;;12.10;;
18138;SDS011;9195;53.176;9.486;2023-01-01T07:16:05;12.50;;;12.00;;
18138;SDS011;9195;53.176;9.486;2023-01-01T07:18:31;12.23;;;11.73;;
18138;SDS011;9195;53.176;9.486;2023-01-01T07:20:58;12.47;;;11.97;;
18138;SDS011;9195;53.176;9.486;2023-01-01T07:23:26;12.70;;;12.10;;
18138;SDS011;9195;53.176;9.486;2023-01-01T07:25:53;13.07;;;12.47;;
18138;SDS011;9195;53.176;9.486;2023-01-01T07:28:21;12.93;;;12.33;;
18138;SDS011;9195;53.176;9.486;2023-01-01T07:30:47;13.03;;;12.43;;
18138;SDS011;9195;53.176;9.486;2023-01-01T07:33:14;12.90;;;12.30;;
18138;SDS011;9195;53.176;9.486;2023-01-01T07:35:41;13.10;;;12.50;;
18138;SDS011;9195;53.176;9.486;2023-01-01T07:38:09;12.80;;;12.20;;
18138;SDS011;9195;53.176;9.486;2023-01-01T07:40:34;12.90;;;12.30;;
18138;SDS011;9195;53.176;9.486;2023-01-01T07:43:00;12.97;;;12.37;;
18138;SDS011;9195;53.176;9.486;2023-01-01T07:45:25;13.07;;;12.47;;
18138;SDS011;9195;53.176;9.486;2023-01-01T07:47:55;13.03;;;12.43;;
18138;SDS011;9195;53.176;9.486;2023-01-01T07:50:22;12.80;;;12.20;;
18138;SDS011;9195;53.176;9.486;2023-01-01T07:52:49;13.17;;;12.57;;
18138;SDS011;9195;53.176;9.486;2023-01-01T07:55:16;12.70;;;12.10;;
18138;SDS011;9195;53.176;9.486;2023-01-01T07:57:43;12.67;;;12.13;;
18138;SDS011;9195;53.176;9.486;2023-01-01T08:00:10;12.30;;;11.80;;
18138;SDS011;9195;53.176;9.486;2023-01-01T08:02:37;12.20;;;11.70;;
18138;SDS011;9195;53.176;9.486;2023-01-01T08:05:04;12.40;;;11.90;;
18138;SDS011;9195;53.176;9.486;2023-01-01T08:07:30;12.30;;;11.80;;
18138;SDS011;9195;53.176;9.486;2023-01-01T08:09:56;12.20;;;11.70;;
18138;SDS011;9195;53.176;9.486;2023-01-01T08:12:22;12.37;;;11.87;;
18138;SDS011;9195;53.176;9.486;2023-01-01T08:14:48;12.57;;;12.00;;
18138;SDS011;9195;53.176;9.486;2023-01-01T08:17:13;12.23;;;11.73;;
18138;SDS011;9195;53.176;9.486;2023-01-01T08:19:39;12.03;;;11.53;;
18138;SDS011;9195;53.176;9.486;2023-01-01T08:22:04;12.33;;;11.83;;
18138;SDS011;9195;53.176;9.486;2023-01-01T08:24:30;12.33;;;11.83;;
18138;SDS011;9195;53.176;9.486;2023-01-01T08:26:56;12.23;;;11.73;;
18138;SDS011;9195;53.176;9.486;2023-01-01T08:29:21;12.40;;;11.90;;
18138;SDS011;9195;53.176;9.486;2023-01-01T08:31:47;12.40;;;11.90;;
18138;SDS011;9195;53.176;9.486;2023-01-01T08:34:12;12.57;;;12.07;;
18138;SDS011;9195;53.176;9.486;2023-01-01T08:36:38;12.40;;;11.90;;
18138;SDS011;9195;53.176;9.486;2023-01-01T08:39:07;11.93;;;11.43;;
18138;SDS011;9195;53.176;9.486;2023-01-01T08:41:33;12.10;;;11.60;;
18138;SDS011;9195;53.176;9.486;2023-01-01T08:43:59;12.23;;;11.73;;
18138;SDS011;9195;53.176;9.486;2023-01-01T08:46:24;12.17;;;11.67;;
18138;SDS011;9195;53.176;9.486;2023-01-01T08:48:50;12.27;;;11.77;;
18138;SDS011;9195;53.176;9.486;2023-01-01T08:51:16;11.97;;;11.47;;
18138;SDS011;9195;53.176;9.486;2023-01-01T08:53:42;12.40;;;11.90;;
18138;SDS011;9195;53.176;9.486;2023-01-01T08:56:08;12.67;;;12.10;;
18138;SDS011;9195;53.176;9.486;2023-01-01T08:58:35;12.90;;;12.30;;
18138;SDS011;9195;53.176;9.486;2023-01-01T09:01:02;12.77;;;12.17;;
18138;SDS011;9195;53.176;9.486;2023-01-01T09:03:28;12.47;;;11.97;;
18138;SDS011;9195;53.176;9.486;2023-01-01T09:05:54;12.20;;;11.70;;
18138;SDS011;9195;53.176;9.486;2023-01-01T09:08:20;12.53;;;12.03;;
18138;SDS011;9195;53.176;9.486;2023-01-01T09:10:46;13.20;;;12.60;;
18138;SDS011;9195;53.176;9.486;2023-01-01T09:13:12;13.53;;;12.93;;
18138;SDS011;9195;53.176;9.486;2023-01-01T09:15:41;13.43;;;12.83;;
18138;SDS011;9195;53.176;9.486;2023-01-01T09:18:07;13.53;;;12.93;;
18138;SDS011;9195;53.176;9.486;2023-01-01T09:20:33;13.33;;;12.73;;
18138;SDS011;9195;53.176;9.486;2023-01-01T09:22:59;13.37;;;12.77;;
18138;SDS011;9195;53.176;9.486;2023-01-01T09:25:24;13.60;;;13.00;;
18138;SDS011;9195;53.176;9.486;2023-01-01T09:28:00;13.50;;;12.90;;
18138;SDS011;9195;53.176;9.486;2023-01-01T09:30:27;13.90;;;13.30;;
18138;SDS011;9195;53.176;9.486;2023-01-01T09:32:53;13.53;;;12.93;;
18138;SDS011;9195;53.176;9.486;2023-01-01T09:35:19;13.30;;;12.70;;
18138;SDS011;9195;53.176;9.486;2023-01-01T09:37:44;13.70;;;13.10;;
18138;SDS011;9195;53.176;9.486;2023-01-01T09:43:21;14.00;;;13.40;;
18138;SDS011;9195;53.176;9.486;2023-01-01T09:45:57;13.87;;;13.27;;
18138;SDS011;9195;53.176;9.486;2023-01-01T09:48:24;13.37;;;12.77;;
18138;SDS011;9195;53.176;9.486;2023-01-01T09:50:51;13.40;;;12.80;;
18138;SDS011;9195;53.176;9.486;2023-01-01T09:53:34;13.60;;;13.00;;
18138;SDS011;9195;53.176;9.486;2023-01-01T09:56:05;13.80;;;13.20;;
18138;SDS011;9195;53.176;9.486;2023-01-01T09:58:38;13.63;;;13.03;;
18138;SDS011;9195;53.176;9.486;2023-01-01T10:01:51;13.80;;;13.20;;
18138;SDS011;9195;53.176;9.486;2023-01-01T10:03:53;13.83;;;13.23;;
18138;SDS011;9195;53.176;9.486;2023-01-01T10:06:43;13.90;;;13.30;;
18138;SDS011;9195;53.176;9.486;2023-01-01T10:09:25;13.90;;;13.30;;
18138;SDS011;9195;53.176;9.486;2023-01-01T10:14:33;14.03;;;13.43;;
18138;SDS011;9195;53.176;9.486;2023-01-01T10:17:03;14.00;;;13.40;;
18138;SDS011;9195;53.176;9.486;2023-01-01T10:19:38;14.50;;;13.80;;
18138;SDS011;9195;53.176;9.486;2023-01-01T10:22:10;14.10;;;13.50;;
18138;SDS011;9195;53.176;9.486;2023-01-01T10:24:47;13.60;;;13.00;;
18138;SDS011;9195;53.176;9.486;2023-01-01T10:27:33;14.40;;;13.70;;
18138;SDS011;9195;53.176;9.486;2023-01-01T10:30:15;14.57;;;13.87;;
18138;SDS011;9195;53.176;9.486;2023-01-01T10:32:45;14.70;;;14.00;;
18138;SDS011;9195;53.176;9.486;2023-01-01T10:35:13;14.73;;;14.03;;
18138;SDS011;9195;53.176;9.486;2023-01-01T10:37:41;14.20;;;13.60;;
18138;SDS011;9195;53.176;9.486;2023-01-01T10:40:15;13.63;;;13.03;;
18138;SDS011;9195;53.176;9.486;2023-01-01T10:42:46;14.40;;;13.70;;
18138;SDS011;9195;53.176;9.486;2023-01-01T10:45:18;13.90;;;13.30;;
18138;SDS011;9195;53.176;9.486;2023-01-01T10:50:49;14.43;;;13.73;;
18138;SDS011;9195;53.176;9.486;2023-01-01T10:56:20;13.47;;;12.87;;
18138;SDS011;9195;53.176;9.486;2023-01-01T10:58:54;13.40;;;12.80;;
18138;SDS011;9195;53.176;9.486;2023-01-01T11:01:26;13.30;;;12.70;;
18138;SDS011;9195;53.176;9.486;2023-01-01T11:04:00;13.80;;;13.20;;
18138;SDS011;9195;53.176;9.486;2023-01-01T11:06:43;13.63;;;13.03;;
18138;SDS011;9195;53.176;9.486;2023-01-01T11:11:47;14.00;;;13.40;;
18138;SDS011;9195;53.176;9.486;2023-01-01T11:14:26;14.10;;;13.50;;
18138;SDS011;9195;53.176;9.486;2023-01-01T11:16:54;13.60;;;13.00;;
18138;SDS011;9195;53.176;9.486;2023-01-01T11:19:26;13.80;;;13.20;;
18138;SDS011;9195;53.176;9.486;2023-01-01T11:21:53;13.83;;;13.23;;
18138;SDS011;9195;53.176;9.486;2023-01-01T11:24:20;13.93;;;13.33;;
18138;SDS011;9195;53.176;9.486;2023-01-01T11:26:50;13.50;;;12.90;;
18138;SDS011;9195;53.176;9.486;2023-01-01T11:31:54;14.00;;;13.40;;
18138;SDS011;9195;53.176;9.486;2023-01-01T11:39:42;13.93;;;13.33;;
18138;SDS011;9195;53.176;9.486;2023-01-01T11:42:17;13.70;;;13.10;;
18138;SDS011;9195;53.176;9.486;2023-01-01T11:47:34;13.70;;;13.10;;
18138;SDS011;9195;53.176;9.486;2023-01-01T11:50:05;13.93;;;13.33;;
18138;SDS011;9195;53.176;9.486;2023-01-01T11:52:47;13.57;;;12.97;;
18138;SDS011;9195;53.176;9.486;2023-01-01T11:55:19;13.40;;;12.80;;
18138;SDS011;9195;53.176;9.486;2023-01-01T11:58:16;13.30;;;12.70;;
18138;SDS011;9195;53.176;9.486;2023-01-01T12:00:57;13.80;;;13.20;;
18138;SDS011;9195;53.176;9.486;2023-01-01T12:03:31;13.70;;;13.10;;
18138;SDS011;9195;53.176;9.486;2023-01-01T12:06:21;13.60;;;13.00;;
18138;SDS011;9195;53.176;9.486;2023-01-01T12:11:43;13.60;;;13.00;;
18138;SDS011;9195;53.176;9.486;2023-01-01T12:14:21;14.30;;;13.70;;
18138;SDS011;9195;53.176;9.486;2023-01-01T12:17:06;15.10;;;14.40;;
18138;SDS011;9195;53.176;9.486;2023-01-01T12:22:45;14.73;;;14.03;;
18138;SDS011;9195;53.176;9.486;2023-01-01T12:25:12;15.10;;;14.40;;
18138;SDS011;9195;53.176;9.486;2023-01-01T12:27:45;15.50;;;14.80;;
18138;SDS011;9195;53.176;9.486;2023-01-01T12:30:29;15.00;;;14.30;;
18138;SDS011;9195;53.176;9.486;2023-01-01T12:33:17;14.90;;;14.20;;
18138;SDS011;9195;53.176;9.486;2023-01-01T12:41:58;13.63;;;13.03;;
18138;SDS011;9195;53.176;9.486;2023-01-01T12:44:58;13.73;;;13.13;;
18138;SDS011;9195;53.176;9.486;2023-01-01T12:47:48;13.23;;;12.63;;
18138;SDS011;9195;53.176;9.486;2023-01-01T12:59:25;13.83;;;13.23;;
18138;SDS011;9195;53.176;9.486;2023-01-01T13:01:54;13.90;;;13.30;;
18138;SDS011;9195;53.176;9.486;2023-01-01T13:04:22;13.77;;;13.17;;
18138;SDS011;9195;53.176;9.486;2023-01-01T13:09:19;12.83;;;12.33;;
18138;SDS011;9195;53.176;9.486;2023-01-01T13:12:10;13.60;;;13.00;;
18138;SDS011;9195;53.176;9.486;2023-01-01T13:14:43;13.70;;;13.10;;
18138;SDS011;9195;53.176;9.486;2023-01-01T13:17:23;13.40;;;12.80;;
18138;SDS011;9195;53.176;9.486;2023-01-01T13:19:59;13.67;;;13.07;;
18138;SDS011;9195;53.176;9.486;2023-01-01T13:22:40;13.30;;;12.70;;
18138;SDS011;9195;53.176;9.486;2023-01-01T13:33:20;12.90;;;12.30;;
18138;SDS011;9195;53.176;9.486;2023-01-01T13:38:50;12.73;;;12.20;;
18138;SDS011;9195;53.176;9.486;2023-01-01T13:46:26;12.93;;;12.33;;
18138;SDS011;9195;53.176;9.486;2023-01-01T14:00:13;12.30;;;11.80;;
18138;SDS011;9195;53.176;9.486;2023-01-01T14:03:10;11.90;;;11.40;;
18138;SDS011;9195;53.176;9.486;2023-01-01T14:05:41;12.20;;;11.70;;
18138;SDS011;9195;53.176;9.486;2023-01-01T14:10:56;12.50;;;12.00;;
18138;SDS011;9195;53.176;9.486;2023-01-01T14:13:22;12.03;;;11.53;;
18138;SDS011;9195;53.176;9.486;2023-01-01T14:16:10;11.90;;;11.40;;
18138;SDS011;9195;53.176;9.486;2023-01-01T14:18:42;11.87;;;11.37;;
18138;SDS011;9195;53.176;9.486;2023-01-01T14:21:23;13.00;;;12.40;;
18138;SDS011;9195;53.176;9.486;2023-01-01T14:23:58;12.00;;;11.50;;
18138;SDS011;9195;53.176;9.486;2023-01-01T14:26:26;12.40;;;11.90;;
18138;SDS011;9195;53.176;9.486;2023-01-01T14:28:57;11.90;;;11.40;;
18138;SDS011;9195;53.176;9.486;2023-01-01T14:31:25;12.17;;;11.67;;
18138;SDS011;9195;53.176;9.486;2023-01-01T14:33:54;12.17;;;11.67;;
18138;SDS011;9195;53.176;9.486;2023-01-01T14:36:21;12.13;;;11.63;;
18138;SDS011;9195;53.176;9.486;2023-01-01T14:38:51;12.07;;;11.57;;
18138;SDS011;9195;53.176;9.486;2023-01-01T14:44:05;11.40;;;10.90;;
18138;SDS011;9195;53.176;9.486;2023-01-01T14:46:42;11.70;;;11.20;;
18138;SDS011;9195;53.176;9.486;2023-01-01T14:52:23;11.00;;;10.50;;
18138;SDS011;9195;53.176;9.486;2023-01-01T14:54:49;10.70;;;10.30;;
18138;SDS011;9195;53.176;9.486;2023-01-01T14:57:17;11.00;;;10.50;;
18138;SDS011;9195;53.176;9.486;2023-01-01T14:59:48;11.17;;;10.67;;
18138;SDS011;9195;53.176;9.486;2023-01-01T15:02:22;11.37;;;10.87;;
18138;SDS011;9195;53.176;9.486;2023-01-01T15:04:49;11.50;;;11.00;;
18138;SDS011;9195;53.176;9.486;2023-01-01T15:09:47;10.10;;;9.70;;
18138;SDS011;9195;53.176;9.486;2023-01-01T15:12:13;10.50;;;10.10;;
18138;SDS011;9195;53.176;9.486;2023-01-01T15:14:42;9.97;;;9.57;;
18138;SDS011;9195;53.176;9.486;2023-01-01T15:17:13;10.10;;;9.70;;
18138;SDS011;9195;53.176;9.486;2023-01-01T15:19:42;9.60;;;9.20;;
18138;SDS011;9195;53.176;9.486;2023-01-01T15:22:28;9.40;;;9.00;;
18138;SDS011;9195;53.176;9.486;2023-01-01T15:24:56;9.30;;;8.90;;
18138;SDS011;9195;53.176;9.486;2023-01-01T15:27:31;9.07;;;8.67;;
18138;SDS011;9195;53.176;9.486;2023-01-01T15:29:58;8.90;;;8.50;;
18138;SDS011;9195;53.176;9.486;2023-01-01T15:32:28;8.40;;;8.10;;
18138;SDS011;9195;53.176;9.486;2023-01-01T15:34:59;8.20;;;7.90;;
18138;SDS011;9195;53.176;9.486;2023-01-01T15:40:02;8.50;;;8.20;;
18138;SDS011;9195;53.176;9.486;2023-01-01T15:45:29;7.70;;;7.40;;
18138;SDS011;9195;53.176;9.486;2023-01-01T15:50:38;7.60;;;7.30;;
18138;SDS011;9195;53.176;9.486;2023-01-01T15:53:21;8.00;;;7.70;;
18138;SDS011;9195;53.176;9.486;2023-01-01T15:55:57;7.10;;;6.80;;
18138;SDS011;9195;53.176;9.486;2023-01-01T15:58:32;7.23;;;6.93;;
18138;SDS011;9195;53.176;9.486;2023-01-01T16:01:01;7.50;;;7.20;;
18138;SDS011;9195;53.176;9.486;2023-01-01T16:03:30;7.47;;;7.17;;
18138;SDS011;9195;53.176;9.486;2023-01-01T16:05:57;7.37;;;7.07;;
18138;SDS011;9195;53.176;9.486;2023-01-01T16:08:24;7.40;;;7.10;;
18138;SDS011;9195;53.176;9.486;2023-01-01T16:10:50;7.40;;;7.10;;
18138;SDS011;9195;53.176;9.486;2023-01-01T16:13:16;7.50;;;7.20;;
18138;SDS011;9195;53.176;9.486;2023-01-01T16:15:52;7.30;;;7.00;;
18138;SDS011;9195;53.176;9.486;2023-01-01T16:18:27;7.20;;;6.90;;
18138;SDS011;9195;53.176;9.486;2023-01-01T16:20:56;7.20;;;6.90;;
18138;SDS011;9195;53.176;9.486;2023-01-01T16:23:22;6.90;;;6.60;;
18138;SDS011;9195;53.176;9.486;2023-01-01T16:25:47;7.00;;;6.70;;
18138;SDS011;9195;53.176;9.486;2023-01-01T16:28:13;7.10;;;6.80;;
18138;SDS011;9195;53.176;9.486;2023-01-01T16:30:39;7.30;;;7.00;;
18138;SDS011;9195;53.176;9.486;2023-01-01T16:33:08;7.33;;;7.03;;
18138;SDS011;9195;53.176;9.486;2023-01-01T16:35:38;7.30;;;7.00;;
18138;SDS011;9195;53.176;9.486;2023-01-01T16:38:04;7.20;;;6.90;;
18138;SDS011;9195;53.176;9.486;2023-01-01T16:40:29;6.90;;;6.60;;
18138;SDS011;9195;53.176;9.486;2023-01-01T16:42:55;7.10;;;6.80;;
18138;SDS011;9195;53.176;9.486;2023-01-01T16:45:21;7.30;;;7.00;;
18138;SDS011;9195;53.176;9.486;2023-01-01T16:47:47;6.53;;;6.33;;
18138;SDS011;9195;53.176;9.486;2023-01-01T16:50:12;6.67;;;6.37;;
18138;SDS011;9195;53.176;9.486;2023-01-01T16:52:38;6.77;;;6.47;;
18138;SDS011;9195;53.176;9.486;2023-01-01T16:55:04;6.70;;;6.40;;
18138;SDS011;9195;53.176;9.486;2023-01-01T16:57:30;6.27;;;6.07;;
18138;SDS011;9195;53.176;9.486;2023-01-01T16:59:59;6.70;;;6.40;;
18138;SDS011;9195;53.176;9.486;2023-01-01T17:02:25;6.73;;;6.43;;
18138;SDS011;9195;53.176;9.486;2023-01-01T17:04:51;6.10;;;5.90;;
18138;SDS011;9195;53.176;9.486;2023-01-01T17:07:16;5.83;;;5.63;;